sensor_id;sensor_type;location;lat;lon;timestamp;P1;durP1;ratioP1;P2;durP2;ratioP2
55222;SDS011;41090;48.632;12.428;2023-04-24T00:01:05;2.83;;;2.53;;
55222;SDS011;41090;48.632;12.428;2023-04-24T00:03:32;4.77;;;2.63;;
55222;SDS011;41090;48.632;12.428;2023-04-24T00:05:57;3.73;;;2.70;;
55222;SDS011;41090;48.632;12.428;2023-04-24T00:08:23;3.20;;;2.43;;
55222;SDS011;41090;48.632;12.428;2023-04-24T00:10:51;3.37;;;2.50;;
55222;SDS011;41090;48.632;12.428;2023-04-24T00:13:17;3.23;;;2.50;;
55222;SDS011;41090;48.632;12.428;2023-04-24T00:15:42;3.37;;;3.07;;
55222;SDS011;41090;48.632;12.428;2023-04-24T00:18:08;3.00;;;2.60;;
55222;SDS011;41090;48.632;12.428;2023-04-24T00:20:33;5.53;;;3.17;;
55222;SDS011;41090;48.632;12.428;2023-04-24T00:23:00;2.63;;;2.40;;
55222;SDS011;41090;48.632;12.428;2023-04-24T00:25:25;4.33;;;2.80;;
55222;SDS011;41090;48.632;12.428;2023-04-24T00:27:56;3.50;;;2.50;;
55222;SDS011;41090;48.632;12.428;2023-04-24T00:30:21;3.30;;;2.60;;
55222;SDS011;41090;48.632;12.428;2023-04-24T00:32:46;2.83;;;2.47;;
55222;SDS011;41090;48.632;12.428;2023-04-24T00:35:13;3.77;;;2.60;;
55222;SDS011;41090;48.632;12.428;2023-04-24T00:37:39;3.77;;;2.83;;
55222;SDS011;41090;48.632;12.428;2023-04-24T00:40:05;4.00;;;3.10;;
55222;SDS011;41090;48.632;12.428;2023-04-24T00:42:31;4.30;;;3.00;;
55222;SDS011;41090;48.632;12.428;2023-04-24T00:44:56;5.00;;;2.70;;
55222;SDS011;41090;48.632;12.428;2023-04-24T00:47:21;4.27;;;2.90;;
55222;SDS011;41090;48.632;12.428;2023-04-24T00:49:47;3.90;;;2.70;;
55222;SDS011;41090;48.632;12.428;2023-04-24T00:52:12;5.60;;;3.20;;
55222;SDS011;41090;48.632;12.428;2023-04-24T00:54:42;3.47;;;3.10;;
55222;SDS011;41090;48.632;12.428;2023-04-24T00:57:07;5.97;;;3.37;;
55222;SDS011;41090;48.632;12.428;2023-04-24T00:59:32;3.57;;;3.10;;
55222;SDS011;41090;48.632;12.428;2023-04-24T01:01:58;4.57;;;3.30;;
55222;SDS011;41090;48.632;12.428;2023-04-24T01:04:23;4.40;;;3.50;;
55222;SDS011;41090;48.632;12.428;2023-04-24T01:06:49;3.90;;;3.30;;
55222;SDS011;41090;48.632;12.428;2023-04-24T01:09:15;4.33;;;3.63;;
55222;SDS011;41090;48.632;12.428;2023-04-24T01:11:41;4.77;;;3.47;;
55222;SDS011;41090;48.632;12.428;2023-04-24T01:14:06;4.97;;;3.73;;
55222;SDS011;41090;48.632;12.428;2023-04-24T01:16:32;4.20;;;3.37;;
55222;SDS011;41090;48.632;12.428;2023-04-24T01:19:00;4.37;;;3.87;;
55222;SDS011;41090;48.632;12.428;2023-04-24T01:21:26;5.80;;;3.40;;
55222;SDS011;41090;48.632;12.428;2023-04-24T01:23:52;5.17;;;3.27;;
55222;SDS011;41090;48.632;12.428;2023-04-24T01:26:18;3.87;;;3.50;;
55222;SDS011;41090;48.632;12.428;2023-04-24T01:28:47;4.63;;;3.70;;
55222;SDS011;41090;48.632;12.428;2023-04-24T01:31:12;4.40;;;3.87;;
55222;SDS011;41090;48.632;12.428;2023-04-24T01:33:38;4.10;;;3.53;;
55222;SDS011;41090;48.632;12.428;2023-04-24T01:36:03;3.90;;;3.50;;
55222;SDS011;41090;48.632;12.428;2023-04-24T01:38:29;4.67;;;3.60;;
55222;SDS011;41090;48.632;12.428;2023-04-24T01:40:54;5.57;;;3.50;;
55222;SDS011;41090;48.632;12.428;2023-04-24T01:43:19;3.43;;;3.13;;
55222;SDS011;41090;48.632;12.428;2023-04-24T01:45:44;4.43;;;3.47;;
55222;SDS011;41090;48.632;12.428;2023-04-24T01:48:10;3.93;;;3.50;;
55222;SDS011;41090;48.632;12.428;2023-04-24T01:50:36;4.27;;;3.03;;
55222;SDS011;41090;48.632;12.428;2023-04-24T01:53:01;5.23;;;3.13;;
55222;SDS011;41090;48.632;12.428;2023-04-24T01:55:27;3.00;;;2.80;;
55222;SDS011;41090;48.632;12.428;2023-04-24T01:57:52;4.37;;;3.10;;
55222;SDS011;41090;48.632;12.428;2023-04-24T02:00:17;3.93;;;2.90;;
55222;SDS011;41090;48.632;12.428;2023-04-24T02:02:43;3.20;;;2.90;;
55222;SDS011;41090;48.632;12.428;2023-04-24T02:05:08;3.67;;;2.93;;
55222;SDS011;41090;48.632;12.428;2023-04-24T02:07:34;4.33;;;2.80;;
55222;SDS011;41090;48.632;12.428;2023-04-24T02:09:59;2.80;;;2.60;;
55222;SDS011;41090;48.632;12.428;2023-04-24T02:12:27;3.00;;;2.80;;
55222;SDS011;41090;48.632;12.428;2023-04-24T02:14:52;3.53;;;2.73;;
55222;SDS011;41090;48.632;12.428;2023-04-24T02:17:19;3.27;;;2.80;;
55222;SDS011;41090;48.632;12.428;2023-04-24T02:19:44;3.53;;;2.87;;
55222;SDS011;41090;48.632;12.428;2023-04-24T02:22:09;2.87;;;2.57;;
55222;SDS011;41090;48.632;12.428;2023-04-24T02:24:35;3.03;;;2.73;;
55222;SDS011;41090;48.632;12.428;2023-04-24T02:27:00;3.13;;;2.60;;
55222;SDS011;41090;48.632;12.428;2023-04-24T02:29:27;3.33;;;2.60;;
55222;SDS011;41090;48.632;12.428;2023-04-24T02:31:52;3.87;;;2.43;;
55222;SDS011;41090;48.632;12.428;2023-04-24T02:34:18;3.07;;;2.57;;
55222;SDS011;41090;48.632;12.428;2023-04-24T02:36:43;2.90;;;2.60;;
55222;SDS011;41090;48.632;12.428;2023-04-24T02:39:20;3.23;;;2.73;;
55222;SDS011;41090;48.632;12.428;2023-04-24T02:41:48;2.73;;;2.20;;
55222;SDS011;41090;48.632;12.428;2023-04-24T02:44:13;2.67;;;2.27;;
55222;SDS011;41090;48.632;12.428;2023-04-24T02:46:47;3.73;;;2.40;;
55222;SDS011;41090;48.632;12.428;2023-04-24T02:49:13;2.77;;;2.30;;
55222;SDS011;41090;48.632;12.428;2023-04-24T02:51:38;3.13;;;2.20;;
55222;SDS011;41090;48.632;12.428;2023-04-24T02:54:06;2.53;;;2.10;;
55222;SDS011;41090;48.632;12.428;2023-04-24T02:56:31;2.70;;;2.43;;
55222;SDS011;41090;48.632;12.428;2023-04-24T02:58:56;3.13;;;2.20;;
55222;SDS011;41090;48.632;12.428;2023-04-24T03:01:21;2.70;;;2.27;;
55222;SDS011;41090;48.632;12.428;2023-04-24T03:03:46;2.83;;;2.10;;
55222;SDS011;41090;48.632;12.428;2023-04-24T03:06:12;2.63;;;2.20;;
55222;SDS011;41090;48.632;12.428;2023-04-24T03:08:37;3.07;;;2.20;;
55222;SDS011;41090;48.632;12.428;2023-04-24T03:11:02;2.20;;;2.00;;
55222;SDS011;41090;48.632;12.428;2023-04-24T03:13:27;2.13;;;1.93;;
55222;SDS011;41090;48.632;12.428;2023-04-24T03:15:53;2.60;;;2.40;;
55222;SDS011;41090;48.632;12.428;2023-04-24T03:18:19;2.40;;;2.00;;
55222;SDS011;41090;48.632;12.428;2023-04-24T03:20:49;2.00;;;1.80;;
55222;SDS011;41090;48.632;12.428;2023-04-24T03:23:15;3.13;;;2.00;;
55222;SDS011;41090;48.632;12.428;2023-04-24T03:25:40;3.50;;;2.20;;
55222;SDS011;41090;48.632;12.428;2023-04-24T03:28:13;2.00;;;1.80;;
55222;SDS011;41090;48.632;12.428;2023-04-24T03:30:38;2.07;;;1.87;;
55222;SDS011;41090;48.632;12.428;2023-04-24T03:33:04;2.37;;;2.17;;
55222;SDS011;41090;48.632;12.428;2023-04-24T03:35:29;3.50;;;2.50;;
55222;SDS011;41090;48.632;12.428;2023-04-24T03:37:55;2.20;;;1.93;;
55222;SDS011;41090;48.632;12.428;2023-04-24T03:40:20;4.67;;;2.20;;
55222;SDS011;41090;48.632;12.428;2023-04-24T03:42:45;2.20;;;2.00;;
55222;SDS011;41090;48.632;12.428;2023-04-24T03:47:40;2.27;;;2.17;;
55222;SDS011;41090;48.632;12.428;2023-04-24T03:50:05;3.03;;;2.13;;
55222;SDS011;41090;48.632;12.428;2023-04-24T03:52:31;4.00;;;2.00;;
55222;SDS011;41090;48.632;12.428;2023-04-24T03:54:59;2.60;;;1.80;;
55222;SDS011;41090;48.632;12.428;2023-04-24T03:57:24;2.10;;;1.90;;
55222;SDS011;41090;48.632;12.428;2023-04-24T03:59:50;2.57;;;2.00;;
55222;SDS011;41090;48.632;12.428;2023-04-24T04:02:15;3.60;;;1.83;;
55222;SDS011;41090;48.632;12.428;2023-04-24T04:04:40;2.10;;;1.87;;
55222;SDS011;41090;48.632;12.428;2023-04-24T04:07:05;2.23;;;2.00;;
55222;SDS011;41090;48.632;12.428;2023-04-24T04:09:31;2.13;;;1.93;;
55222;SDS011;41090;48.632;12.428;2023-04-24T04:11:57;2.03;;;1.70;;
55222;SDS011;41090;48.632;12.428;2023-04-24T04:14:22;2.10;;;1.90;;
55222;SDS011;41090;48.632;12.428;2023-04-24T04:16:48;2.73;;;1.80;;
55222;SDS011;41090;48.632;12.428;2023-04-24T04:19:13;2.37;;;1.60;;
55222;SDS011;41090;48.632;12.428;2023-04-24T04:21:38;1.80;;;1.70;;
55222;SDS011;41090;48.632;12.428;2023-04-24T04:24:11;2.43;;;1.80;;
55222;SDS011;41090;48.632;12.428;2023-04-24T04:26:36;1.80;;;1.63;;
55222;SDS011;41090;48.632;12.428;2023-04-24T04:29:02;2.13;;;1.80;;
55222;SDS011;41090;48.632;12.428;2023-04-24T04:31:28;2.97;;;2.00;;
55222;SDS011;41090;48.632;12.428;2023-04-24T04:33:53;2.77;;;1.80;;
55222;SDS011;41090;48.632;12.428;2023-04-24T04:36:20;3.27;;;2.10;;
55222;SDS011;41090;48.632;12.428;2023-04-24T04:38:45;4.33;;;1.80;;
55222;SDS011;41090;48.632;12.428;2023-04-24T04:41:10;1.90;;;1.73;;
55222;SDS011;41090;48.632;12.428;2023-04-24T04:43:35;1.93;;;1.60;;
55222;SDS011;41090;48.632;12.428;2023-04-24T04:46:16;1.90;;;1.67;;
55222;SDS011;41090;48.632;12.428;2023-04-24T04:48:42;2.03;;;1.80;;
55222;SDS011;41090;48.632;12.428;2023-04-24T04:51:08;2.03;;;1.83;;
55222;SDS011;41090;48.632;12.428;2023-04-24T04:53:34;1.83;;;1.73;;
55222;SDS011;41090;48.632;12.428;2023-04-24T04:56:02;2.73;;;1.70;;
55222;SDS011;41090;48.632;12.428;2023-04-24T04:58:27;2.00;;;1.80;;
55222;SDS011;41090;48.632;12.428;2023-04-24T05:00:52;1.77;;;1.60;;
55222;SDS011;41090;48.632;12.428;2023-04-24T05:03:18;2.90;;;1.67;;
55222;SDS011;41090;48.632;12.428;2023-04-24T05:05:43;1.80;;;1.70;;
55222;SDS011;41090;48.632;12.428;2023-04-24T05:08:08;1.80;;;1.70;;
55222;SDS011;41090;48.632;12.428;2023-04-24T05:10:33;2.47;;;1.80;;
55222;SDS011;41090;48.632;12.428;2023-04-24T05:12:59;2.40;;;1.77;;
55222;SDS011;41090;48.632;12.428;2023-04-24T05:15:24;2.10;;;1.77;;
55222;SDS011;41090;48.632;12.428;2023-04-24T05:17:49;2.03;;;1.53;;
55222;SDS011;41090;48.632;12.428;2023-04-24T05:20:14;2.30;;;1.70;;
55222;SDS011;41090;48.632;12.428;2023-04-24T05:22:40;1.83;;;1.50;;
55222;SDS011;41090;48.632;12.428;2023-04-24T05:25:05;4.33;;;1.80;;
55222;SDS011;41090;48.632;12.428;2023-04-24T05:27:32;1.90;;;1.70;;
55222;SDS011;41090;48.632;12.428;2023-04-24T05:29:58;1.87;;;1.50;;
55222;SDS011;41090;48.632;12.428;2023-04-24T05:32:23;2.07;;;1.87;;
55222;SDS011;41090;48.632;12.428;2023-04-24T05:34:48;1.60;;;1.50;;
55222;SDS011;41090;48.632;12.428;2023-04-24T05:37:13;2.20;;;1.37;;
55222;SDS011;41090;48.632;12.428;2023-04-24T05:39:38;2.90;;;1.70;;
55222;SDS011;41090;48.632;12.428;2023-04-24T05:42:04;2.47;;;1.60;;
55222;SDS011;41090;48.632;12.428;2023-04-24T05:44:29;2.30;;;1.60;;
55222;SDS011;41090;48.632;12.428;2023-04-24T05:46:55;2.03;;;1.47;;
55222;SDS011;41090;48.632;12.428;2023-04-24T05:49:22;1.53;;;1.40;;
55222;SDS011;41090;48.632;12.428;2023-04-24T05:51:49;2.00;;;1.50;;
55222;SDS011;41090;48.632;12.428;2023-04-24T05:54:14;2.03;;;1.60;;
55222;SDS011;41090;48.632;12.428;2023-04-24T05:56:40;1.83;;;1.60;;
55222;SDS011;41090;48.632;12.428;2023-04-24T05:59:06;5.23;;;1.57;;
55222;SDS011;41090;48.632;12.428;2023-04-24T06:01:32;1.87;;;1.60;;
55222;SDS011;41090;48.632;12.428;2023-04-24T06:03:57;2.07;;;1.60;;
55222;SDS011;41090;48.632;12.428;2023-04-24T06:06:26;1.50;;;1.40;;
55222;SDS011;41090;48.632;12.428;2023-04-24T06:08:52;2.83;;;1.53;;
55222;SDS011;41090;48.632;12.428;2023-04-24T06:11:17;1.60;;;1.50;;
55222;SDS011;41090;48.632;12.428;2023-04-24T06:13:42;2.77;;;1.40;;
55222;SDS011;41090;48.632;12.428;2023-04-24T06:16:08;2.33;;;1.63;;
55222;SDS011;41090;48.632;12.428;2023-04-24T06:18:35;2.40;;;1.37;;
55222;SDS011;41090;48.632;12.428;2023-04-24T06:21:00;1.40;;;1.30;;
55222;SDS011;41090;48.632;12.428;2023-04-24T06:23:25;1.70;;;1.33;;
55222;SDS011;41090;48.632;12.428;2023-04-24T06:25:50;3.20;;;1.50;;
55222;SDS011;41090;48.632;12.428;2023-04-24T06:28:16;2.80;;;1.47;;
55222;SDS011;41090;48.632;12.428;2023-04-24T06:30:41;3.33;;;1.60;;
55222;SDS011;41090;48.632;12.428;2023-04-24T06:33:06;3.00;;;1.70;;
55222;SDS011;41090;48.632;12.428;2023-04-24T06:35:32;1.77;;;1.50;;
55222;SDS011;41090;48.632;12.428;2023-04-24T06:37:57;2.83;;;1.60;;
55222;SDS011;41090;48.632;12.428;2023-04-24T06:40:22;2.40;;;1.60;;
55222;SDS011;41090;48.632;12.428;2023-04-24T06:42:47;1.50;;;1.30;;
55222;SDS011;41090;48.632;12.428;2023-04-24T06:45:13;1.73;;;1.30;;
55222;SDS011;41090;48.632;12.428;2023-04-24T06:47:38;1.40;;;1.30;;
55222;SDS011;41090;48.632;12.428;2023-04-24T06:50:04;2.00;;;1.40;;
55222;SDS011;41090;48.632;12.428;2023-04-24T06:52:29;1.67;;;1.40;;
55222;SDS011;41090;48.632;12.428;2023-04-24T06:55:01;3.53;;;1.47;;
55222;SDS011;41090;48.632;12.428;2023-04-24T06:57:27;1.73;;;1.50;;
55222;SDS011;41090;48.632;12.428;2023-04-24T06:59:52;1.70;;;1.60;;
55222;SDS011;41090;48.632;12.428;2023-04-24T07:02:17;1.83;;;1.60;;
55222;SDS011;41090;48.632;12.428;2023-04-24T07:04:43;2.50;;;1.40;;
55222;SDS011;41090;48.632;12.428;2023-04-24T07:07:08;1.60;;;1.50;;
55222;SDS011;41090;48.632;12.428;2023-04-24T07:09:34;1.40;;;1.30;;
55222;SDS011;41090;48.632;12.428;2023-04-24T07:12:03;1.97;;;1.53;;
55222;SDS011;41090;48.632;12.428;2023-04-24T07:14:28;2.57;;;1.73;;
55222;SDS011;41090;48.632;12.428;2023-04-24T07:16:53;3.17;;;1.53;;
55222;SDS011;41090;48.632;12.428;2023-04-24T07:19:19;2.70;;;1.40;;
55222;SDS011;41090;48.632;12.428;2023-04-24T07:21:44;2.00;;;1.40;;
55222;SDS011;41090;48.632;12.428;2023-04-24T07:24:10;2.37;;;1.30;;
55222;SDS011;41090;48.632;12.428;2023-04-24T07:26:36;1.67;;;1.37;;
55222;SDS011;41090;48.632;12.428;2023-04-24T07:29:01;2.07;;;1.70;;
55222;SDS011;41090;48.632;12.428;2023-04-24T07:31:26;1.50;;;1.40;;
55222;SDS011;41090;48.632;12.428;2023-04-24T07:33:52;1.60;;;1.50;;
55222;SDS011;41090;48.632;12.428;2023-04-24T07:36:17;2.90;;;1.50;;
55222;SDS011;41090;48.632;12.428;2023-04-24T07:38:44;1.83;;;1.30;;
55222;SDS011;41090;48.632;12.428;2023-04-24T07:41:09;2.13;;;1.80;;
55222;SDS011;41090;48.632;12.428;2023-04-24T07:43:35;3.33;;;1.50;;
55222;SDS011;41090;48.632;12.428;2023-04-24T07:46:00;2.47;;;1.57;;
55222;SDS011;41090;48.632;12.428;2023-04-24T07:48:25;1.73;;;1.50;;
55222;SDS011;41090;48.632;12.428;2023-04-24T07:50:57;1.77;;;1.40;;
55222;SDS011;41090;48.632;12.428;2023-04-24T07:53:22;1.93;;;1.50;;
55222;SDS011;41090;48.632;12.428;2023-04-24T07:55:47;1.80;;;1.70;;
55222;SDS011;41090;48.632;12.428;2023-04-24T07:58:13;2.33;;;1.77;;
55222;SDS011;41090;48.632;12.428;2023-04-24T08:00:38;1.57;;;1.30;;
55222;SDS011;41090;48.632;12.428;2023-04-24T08:03:03;2.67;;;1.40;;
55222;SDS011;41090;48.632;12.428;2023-04-24T08:05:31;1.80;;;1.50;;
55222;SDS011;41090;48.632;12.428;2023-04-24T08:07:58;2.20;;;1.40;;
55222;SDS011;41090;48.632;12.428;2023-04-24T08:10:24;4.43;;;1.60;;
55222;SDS011;41090;48.632;12.428;2023-04-24T08:12:50;1.77;;;1.50;;
55222;SDS011;41090;48.632;12.428;2023-04-24T08:15:15;2.90;;;1.50;;
55222;SDS011;41090;48.632;12.428;2023-04-24T08:17:40;2.33;;;1.23;;
55222;SDS011;41090;48.632;12.428;2023-04-24T08:20:06;2.20;;;1.40;;
55222;SDS011;41090;48.632;12.428;2023-04-24T08:22:35;1.40;;;1.30;;
55222;SDS011;41090;48.632;12.428;2023-04-24T08:25:00;1.97;;;1.40;;
55222;SDS011;41090;48.632;12.428;2023-04-24T08:27:26;2.93;;;1.43;;
55222;SDS011;41090;48.632;12.428;2023-04-24T08:29:52;1.70;;;1.50;;
55222;SDS011;41090;48.632;12.428;2023-04-24T08:32:19;2.27;;;1.57;;
55222;SDS011;41090;48.632;12.428;2023-04-24T08:34:44;1.97;;;1.40;;
55222;SDS011;41090;48.632;12.428;2023-04-24T08:37:10;1.40;;;1.30;;
55222;SDS011;41090;48.632;12.428;2023-04-24T08:39:36;2.97;;;1.57;;
55222;SDS011;41090;48.632;12.428;2023-04-24T08:42:01;2.20;;;1.60;;
55222;SDS011;41090;48.632;12.428;2023-04-24T08:44:31;3.30;;;1.40;;
55222;SDS011;41090;48.632;12.428;2023-04-24T08:46:57;2.30;;;1.60;;
55222;SDS011;41090;48.632;12.428;2023-04-24T08:49:22;2.87;;;1.70;;
55222;SDS011;41090;48.632;12.428;2023-04-24T08:51:49;2.37;;;1.50;;
55222;SDS011;41090;48.632;12.428;2023-04-24T08:54:15;2.20;;;1.50;;
55222;SDS011;41090;48.632;12.428;2023-04-24T08:56:40;1.73;;;1.40;;
55222;SDS011;41090;48.632;12.428;2023-04-24T08:59:08;1.40;;;1.30;;
55222;SDS011;41090;48.632;12.428;2023-04-24T09:01:34;1.67;;;1.50;;
55222;SDS011;41090;48.632;12.428;2023-04-24T09:04:03;3.00;;;1.60;;
55222;SDS011;41090;48.632;12.428;2023-04-24T09:06:28;1.83;;;1.27;;
55222;SDS011;41090;48.632;12.428;2023-04-24T09:08:55;2.20;;;1.37;;
55222;SDS011;41090;48.632;12.428;2023-04-24T09:11:21;3.07;;;1.53;;
55222;SDS011;41090;48.632;12.428;2023-04-24T09:13:49;1.50;;;1.20;;
55222;SDS011;41090;48.632;12.428;2023-04-24T09:16:14;1.57;;;1.40;;
55222;SDS011;41090;48.632;12.428;2023-04-24T09:18:40;2.57;;;1.50;;
55222;SDS011;41090;48.632;12.428;2023-04-24T09:21:09;3.00;;;1.87;;
55222;SDS011;41090;48.632;12.428;2023-04-24T09:23:35;2.50;;;1.80;;
55222;SDS011;41090;48.632;12.428;2023-04-24T09:26:01;2.47;;;1.40;;
55222;SDS011;41090;48.632;12.428;2023-04-24T09:28:31;3.27;;;1.60;;
55222;SDS011;41090;48.632;12.428;2023-04-24T09:31:12;2.27;;;1.40;;
55222;SDS011;41090;48.632;12.428;2023-04-24T09:33:38;3.17;;;1.53;;
55222;SDS011;41090;48.632;12.428;2023-04-24T09:36:04;1.83;;;1.40;;
55222;SDS011;41090;48.632;12.428;2023-04-24T09:38:34;2.10;;;1.70;;
55222;SDS011;41090;48.632;12.428;2023-04-24T09:41:01;3.20;;;1.70;;
55222;SDS011;41090;48.632;12.428;2023-04-24T09:43:28;2.03;;;1.70;;
55222;SDS011;41090;48.632;12.428;2023-04-24T09:45:55;2.03;;;1.50;;
55222;SDS011;41090;48.632;12.428;2023-04-24T09:48:20;2.97;;;1.60;;
55222;SDS011;41090;48.632;12.428;2023-04-24T09:50:54;1.93;;;1.50;;
55222;SDS011;41090;48.632;12.428;2023-04-24T09:53:23;1.70;;;1.60;;
55222;SDS011;41090;48.632;12.428;2023-04-24T09:55:48;1.67;;;1.57;;
55222;SDS011;41090;48.632;12.428;2023-04-24T09:58:15;2.07;;;1.40;;
55222;SDS011;41090;48.632;12.428;2023-04-24T10:00:42;1.40;;;1.30;;
55222;SDS011;41090;48.632;12.428;2023-04-24T10:03:07;1.63;;;1.37;;
55222;SDS011;41090;48.632;12.428;2023-04-24T10:05:34;3.13;;;1.50;;
55222;SDS011;41090;48.632;12.428;2023-04-24T10:08:06;3.07;;;1.47;;
55222;SDS011;41090;48.632;12.428;2023-04-24T10:10:37;1.50;;;1.40;;
55222;SDS011;41090;48.632;12.428;2023-04-24T10:13:03;2.33;;;1.40;;
55222;SDS011;41090;48.632;12.428;2023-04-24T10:15:29;1.70;;;1.43;;
55222;SDS011;41090;48.632;12.428;2023-04-24T10:17:55;1.60;;;1.50;;
55222;SDS011;41090;48.632;12.428;2023-04-24T10:20:23;1.60;;;1.50;;
55222;SDS011;41090;48.632;12.428;2023-04-24T10:22:49;1.50;;;1.40;;
55222;SDS011;41090;48.632;12.428;2023-04-24T10:25:22;1.30;;;1.20;;
55222;SDS011;41090;48.632;12.428;2023-04-24T10:27:48;3.40;;;1.50;;
55222;SDS011;41090;48.632;12.428;2023-04-24T10:30:14;1.70;;;1.60;;
55222;SDS011;41090;48.632;12.428;2023-04-24T10:32:39;3.17;;;1.60;;
55222;SDS011;41090;48.632;12.428;2023-04-24T10:35:08;1.77;;;1.50;;
55222;SDS011;41090;48.632;12.428;2023-04-24T10:37:40;1.73;;;1.60;;
55222;SDS011;41090;48.632;12.428;2023-04-24T10:40:06;1.67;;;1.57;;
55222;SDS011;41090;48.632;12.428;2023-04-24T10:42:32;2.87;;;1.80;;
55222;SDS011;41090;48.632;12.428;2023-04-24T10:44:58;1.87;;;1.67;;
55222;SDS011;41090;48.632;12.428;2023-04-24T10:49:51;2.33;;;1.70;;
55222;SDS011;41090;48.632;12.428;2023-04-24T10:52:17;2.50;;;1.70;;
55222;SDS011;41090;48.632;12.428;2023-04-24T10:54:46;2.10;;;1.90;;
55222;SDS011;41090;48.632;12.428;2023-04-24T11:02:39;3.40;;;2.20;;
55222;SDS011;41090;48.632;12.428;2023-04-24T11:05:08;2.30;;;2.10;;
55222;SDS011;41090;48.632;12.428;2023-04-24T11:10:27;3.00;;;2.10;;
55222;SDS011;41090;48.632;12.428;2023-04-24T11:12:52;3.60;;;2.53;;
55222;SDS011;41090;48.632;12.428;2023-04-24T11:17:55;2.23;;;2.00;;
55222;SDS011;41090;48.632;12.428;2023-04-24T11:20:22;2.20;;;2.00;;
55222;SDS011;41090;48.632;12.428;2023-04-24T11:22:48;3.17;;;2.10;;
55222;SDS011;41090;48.632;12.428;2023-04-24T11:25:14;1.93;;;1.73;;
55222;SDS011;41090;48.632;12.428;2023-04-24T11:27:42;2.17;;;1.85;;
55222;SDS011;41090;48.632;12.428;2023-04-24T11:30:07;2.10;;;1.83;;
55222;SDS011;41090;48.632;12.428;2023-04-24T11:37:24;1.95;;;1.75;;
55222;SDS011;41090;48.632;12.428;2023-04-24T11:39:50;2.10;;;1.80;;
55222;SDS011;41090;48.632;12.428;2023-04-24T11:42:16;2.37;;;1.80;;
55222;SDS011;41090;48.632;12.428;2023-04-24T11:44:42;2.10;;;1.90;;
55222;SDS011;41090;48.632;12.428;2023-04-24T11:47:08;1.70;;;1.60;;
55222;SDS011;41090;48.632;12.428;2023-04-24T11:49:37;2.43;;;2.07;;
55222;SDS011;41090;48.632;12.428;2023-04-24T11:52:03;2.80;;;2.10;;
55222;SDS011;41090;48.632;12.428;2023-04-24T11:54:28;2.90;;;2.20;;
55222;SDS011;41090;48.632;12.428;2023-04-24T11:56:55;2.97;;;2.30;;
55222;SDS011;41090;48.632;12.428;2023-04-24T11:59:21;2.07;;;1.83;;
55222;SDS011;41090;48.632;12.428;2023-04-24T12:01:46;3.77;;;2.50;;
55222;SDS011;41090;48.632;12.428;2023-04-24T12:04:12;3.23;;;2.70;;
55222;SDS011;41090;48.632;12.428;2023-04-24T12:06:38;3.00;;;2.00;;
55222;SDS011;41090;48.632;12.428;2023-04-24T12:09:03;2.27;;;2.07;;
55222;SDS011;41090;48.632;12.428;2023-04-24T12:11:30;3.30;;;2.40;;
55222;SDS011;41090;48.632;12.428;2023-04-24T12:13:55;2.00;;;1.60;;
55222;SDS011;41090;48.632;12.428;2023-04-24T12:16:20;2.33;;;1.50;;
55222;SDS011;41090;48.632;12.428;2023-04-24T12:18:46;2.17;;;1.70;;
55222;SDS011;41090;48.632;12.428;2023-04-24T12:21:15;1.80;;;1.70;;
55222;SDS011;41090;48.632;12.428;2023-04-24T12:23:46;1.47;;;1.37;;
55222;SDS011;41090;48.632;12.428;2023-04-24T12:26:12;1.60;;;1.50;;
55222;SDS011;41090;48.632;12.428;2023-04-24T12:28:42;1.83;;;1.67;;
55222;SDS011;41090;48.632;12.428;2023-04-24T12:31:12;2.00;;;1.80;;
55222;SDS011;41090;48.632;12.428;2023-04-24T12:33:37;1.90;;;1.70;;
55222;SDS011;41090;48.632;12.428;2023-04-24T12:36:03;2.33;;;1.80;;
55222;SDS011;41090;48.632;12.428;2023-04-24T12:38:30;2.80;;;1.77;;
55222;SDS011;41090;48.632;12.428;2023-04-24T12:41:02;2.30;;;1.80;;
55222;SDS011;41090;48.632;12.428;2023-04-24T12:43:29;1.93;;;1.83;;
55222;SDS011;41090;48.632;12.428;2023-04-24T12:45:54;3.57;;;3.17;;
55222;SDS011;41090;48.632;12.428;2023-04-24T12:48:19;2.30;;;2.10;;
55222;SDS011;41090;48.632;12.428;2023-04-24T12:50:45;1.77;;;1.67;;
55222;SDS011;41090;48.632;12.428;2023-04-24T12:53:10;3.27;;;2.93;;
55222;SDS011;41090;48.632;12.428;2023-04-24T12:55:36;1.83;;;1.60;;
55222;SDS011;41090;48.632;12.428;2023-04-24T12:58:01;1.80;;;1.70;;
55222;SDS011;41090;48.632;12.428;2023-04-24T13:00:27;4.00;;;3.40;;
55222;SDS011;41090;48.632;12.428;2023-04-24T13:02:53;2.23;;;1.93;;
55222;SDS011;41090;48.632;12.428;2023-04-24T13:05:18;3.70;;;2.10;;
55222;SDS011;41090;48.632;12.428;2023-04-24T13:07:43;2.00;;;1.70;;
55222;SDS011;41090;48.632;12.428;2023-04-24T13:10:11;4.20;;;1.80;;
55222;SDS011;41090;48.632;12.428;2023-04-24T13:12:36;2.10;;;1.90;;
55222;SDS011;41090;48.632;12.428;2023-04-24T13:15:02;2.30;;;1.90;;
55222;SDS011;41090;48.632;12.428;2023-04-24T13:17:28;2.63;;;1.97;;
55222;SDS011;41090;48.632;12.428;2023-04-24T13:19:53;2.37;;;2.10;;
55222;SDS011;41090;48.632;12.428;2023-04-24T13:22:19;2.33;;;2.00;;
55222;SDS011;41090;48.632;12.428;2023-04-24T13:24:45;2.63;;;2.20;;
55222;SDS011;41090;48.632;12.428;2023-04-24T13:27:10;1.80;;;1.70;;
55222;SDS011;41090;48.632;12.428;2023-04-24T13:29:36;2.20;;;2.00;;
55222;SDS011;41090;48.632;12.428;2023-04-24T13:32:13;2.20;;;2.00;;
55222;SDS011;41090;48.632;12.428;2023-04-24T13:34:38;2.10;;;1.90;;
55222;SDS011;41090;48.632;12.428;2023-04-24T13:37:04;2.40;;;2.00;;
55222;SDS011;41090;48.632;12.428;2023-04-24T13:39:31;2.30;;;2.10;;
55222;SDS011;41090;48.632;12.428;2023-04-24T13:41:56;2.20;;;1.80;;
55222;SDS011;41090;48.632;12.428;2023-04-24T13:44:22;2.87;;;2.17;;
55222;SDS011;41090;48.632;12.428;2023-04-24T13:46:49;2.33;;;2.13;;
55222;SDS011;41090;48.632;12.428;2023-04-24T13:49:15;2.10;;;1.90;;
55222;SDS011;41090;48.632;12.428;2023-04-24T13:51:40;2.50;;;2.30;;
55222;SDS011;41090;48.632;12.428;2023-04-24T13:54:06;5.37;;;2.53;;
55222;SDS011;41090;48.632;12.428;2023-04-24T13:56:31;2.87;;;2.40;;
55222;SDS011;41090;48.632;12.428;2023-04-24T13:58:57;3.70;;;2.20;;
55222;SDS011;41090;48.632;12.428;2023-04-24T14:01:22;2.43;;;2.10;;
55222;SDS011;41090;48.632;12.428;2023-04-24T14:03:51;2.00;;;1.90;;
55222;SDS011;41090;48.632;12.428;2023-04-24T14:06:16;2.00;;;1.80;;
55222;SDS011;41090;48.632;12.428;2023-04-24T14:08:41;2.20;;;2.00;;
55222;SDS011;41090;48.632;12.428;2023-04-24T14:11:07;2.63;;;1.93;;
55222;SDS011;41090;48.632;12.428;2023-04-24T14:13:32;5.43;;;2.20;;
55222;SDS011;41090;48.632;12.428;2023-04-24T14:15:58;4.00;;;2.17;;
55222;SDS011;41090;48.632;12.428;2023-04-24T14:18:23;2.37;;;1.83;;
55222;SDS011;41090;48.632;12.428;2023-04-24T14:20:48;2.70;;;1.60;;
55222;SDS011;41090;48.632;12.428;2023-04-24T14:23:13;2.90;;;1.77;;
55222;SDS011;41090;48.632;12.428;2023-04-24T14:25:39;2.53;;;1.70;;
55222;SDS011;41090;48.632;12.428;2023-04-24T14:28:05;2.47;;;1.70;;
55222;SDS011;41090;48.632;12.428;2023-04-24T14:30:30;2.00;;;1.77;;
55222;SDS011;41090;48.632;12.428;2023-04-24T14:32:55;1.97;;;1.70;;
55222;SDS011;41090;48.632;12.428;2023-04-24T14:35:21;3.20;;;2.00;;
55222;SDS011;41090;48.632;12.428;2023-04-24T14:37:46;3.43;;;1.97;;
55222;SDS011;41090;48.632;12.428;2023-04-24T14:40:13;2.97;;;2.00;;
55222;SDS011;41090;48.632;12.428;2023-04-24T14:42:38;3.07;;;1.87;;
55222;SDS011;41090;48.632;12.428;2023-04-24T14:45:03;1.97;;;1.60;;
55222;SDS011;41090;48.632;12.428;2023-04-24T14:47:29;2.73;;;1.60;;